createdAt,value
2022-08-25T00:00:24.746Z,64.27
2022-08-25T00:03:13.645Z,64.41
2022-08-25T00:05:41.489Z,64.57
2022-08-25T00:08:09.686Z,64.59
2022-08-25T00:10:39.584Z,64.55
2022-08-25T00:13:08.600Z,64.52
2022-08-25T00:15:38.503Z,64.61
2022-08-25T00:18:11.367Z,64.74
2022-08-25T00:20:49.274Z,64.81
2022-08-25T00:23:18.618Z,64.90
2022-08-25T00:25:46.846Z,64.96
2022-08-25T00:28:17.389Z,65.10
2022-08-25T00:30:46.172Z,65.05
2022-08-25T00:33:15.033Z,65.15
2022-08-25T00:35:43.921Z,65.18
2022-08-25T00:38:13.106Z,65.21
2022-08-25T00:40:43.009Z,65.31
2022-08-25T00:43:12.096Z,65.41
2022-08-25T00:45:41.026Z,65.51
2022-08-25T00:48:09.341Z,65.48
2022-08-25T00:50:37.821Z,65.49
2022-08-25T00:53:08.733Z,65.65
2022-08-25T00:55:40.625Z,65.71
2022-08-25T00:58:19.051Z,65.82
2022-08-25T01:00:51.310Z,65.89
2022-08-25T01:03:21.031Z,65.89
2022-08-25T01:05:54.063Z,66.03
2022-08-25T01:08:29.155Z,66.00
2022-08-25T01:10:59.576Z,66.06
2022-08-25T01:13:51.130Z,66.15
2022-08-25T01:16:19.898Z,66.24
2022-08-25T01:18:51.537Z,66.26
2022-08-25T01:21:22.437Z,66.35
2022-08-25T01:23:52.472Z,66.40
2022-08-25T01:26:28.323Z,66.39
2022-08-25T01:29:20.549Z,66.47
2022-08-25T01:31:51.123Z,66.47
2022-08-25T01:34:21.701Z,66.48
2022-08-25T01:36:50.065Z,66.66
2022-08-25T01:39:18.516Z,66.58
2022-08-25T01:42:05.741Z,66.68
2022-08-25T01:44:36.569Z,66.76
2022-08-25T01:47:06.631Z,66.83
2022-08-25T01:49:35.523Z,66.89
2022-08-25T01:52:29.173Z,66.89
2022-08-25T01:54:57.371Z,67.07
2022-08-25T01:57:25.103Z,66.94
2022-08-25T01:59:53.033Z,67.09
2022-08-25T02:02:20.791Z,67.07
2022-08-25T02:04:50.688Z,67.15
2022-08-25T02:07:19.516Z,67.16
2022-08-25T02:09:47.587Z,67.24
2022-08-25T02:12:16.118Z,67.26
2022-08-25T02:14:44.108Z,67.36
2022-08-25T02:17:12.111Z,67.28
2022-08-25T02:19:40.356Z,67.42
2022-08-25T02:22:09.204Z,67.51
2022-08-25T02:24:37.220Z,67.55
2022-08-25T02:27:05.649Z,67.58
2022-08-25T02:29:34.347Z,67.65
2022-08-25T02:32:03.915Z,67.74
2022-08-25T02:34:32.233Z,67.81
2022-08-25T02:37:00.729Z,67.76
2022-08-25T02:39:29.367Z,67.84
2022-08-25T02:41:57.134Z,67.89
2022-08-25T02:44:24.852Z,67.98
2022-08-25T02:46:52.830Z,68.01
2022-08-25T02:49:21.175Z,68.03
2022-08-25T02:51:49.250Z,68.03
2022-08-25T02:54:16.983Z,68.13
2022-08-25T02:56:45.189Z,68.12
2022-08-25T02:59:13.746Z,68.18
2022-08-25T03:01:42.798Z,68.30
2022-08-25T03:04:11.304Z,68.29
2022-08-25T03:06:40.119Z,68.38
2022-08-25T03:09:09.142Z,68.41
2022-08-25T03:11:38.932Z,68.45
2022-08-25T03:14:09.792Z,68.56
2022-08-25T03:16:38.595Z,68.48
2022-08-25T03:19:08.556Z,68.68
2022-08-25T03:21:39.120Z,68.70
2022-08-25T03:24:08.405Z,68.76
2022-08-25T03:26:55.111Z,68.76
2022-08-25T03:29:33.275Z,68.86
2022-08-25T03:32:02.095Z,69.02
2022-08-25T03:34:31.306Z,69.03
2022-08-25T03:36:59.992Z,69.00
2022-08-25T03:39:29.383Z,68.98
2022-08-25T03:41:57.197Z,69.12
2022-08-25T03:44:25.921Z,69.22
2022-08-25T03:46:54.262Z,69.28
2022-08-25T03:49:24.766Z,69.21
2022-08-25T03:51:55.269Z,69.31
2022-08-25T03:54:26.352Z,69.38
2022-08-25T03:56:55.210Z,69.42
2022-08-25T03:59:23.599Z,69.49
2022-08-25T04:01:55.121Z,69.52
2022-08-25T04:04:24.235Z,69.53
2022-08-25T04:06:53.417Z,69.48
2022-08-25T04:09:22.326Z,69.64
2022-08-25T04:11:52.996Z,69.67
2022-08-25T04:14:23.956Z,69.65
2022-08-25T04:16:53.122Z,69.68
2022-08-25T04:19:22.395Z,69.78
2022-08-25T04:21:52.143Z,69.79
2022-08-25T04:24:25.577Z,69.80
2022-08-25T04:26:55.152Z,69.84
2022-08-25T04:29:25.395Z,69.82
2022-08-25T04:31:55.108Z,69.95
2022-08-25T04:34:29.584Z,70.02
2022-08-25T04:37:03.082Z,70.05
2022-08-25T04:39:33.316Z,70.01
2022-08-25T04:42:02.530Z,69.96
2022-08-25T04:44:32.043Z,70.10
2022-08-25T04:47:00.846Z,70.15
2022-08-25T04:49:29.598Z,70.26
2022-08-25T04:51:57.681Z,70.28
2022-08-25T04:54:26.389Z,70.34
2022-08-25T04:56:58.070Z,70.35
2022-08-25T04:59:30.324Z,70.22
2022-08-25T05:02:03.224Z,70.11
2022-08-25T05:04:33.031Z,70.22
2022-08-25T05:07:03.123Z,70.54
2022-08-25T05:09:33.026Z,70.58
2022-08-25T05:12:03.225Z,70.54
2022-08-25T05:14:32.853Z,70.70
2022-08-25T05:17:02.107Z,70.62
2022-08-25T05:19:30.982Z,70.65
2022-08-25T05:21:59.127Z,70.69
2022-08-25T05:24:28.322Z,70.72
2022-08-25T05:26:58.158Z,70.75
2022-08-25T05:29:27.285Z,70.92
2022-08-25T05:31:56.367Z,70.87
2022-08-25T05:34:25.226Z,70.93
2022-08-25T05:36:53.087Z,70.91
2022-08-25T05:39:20.852Z,70.90
2022-08-25T05:41:48.578Z,70.96
2022-08-25T05:44:20.876Z,70.95
2022-08-25T05:46:49.865Z,70.86
2022-08-25T05:49:17.674Z,71.02
2022-08-25T05:51:45.507Z,70.96
2022-08-25T05:54:13.411Z,71.02
2022-08-25T05:56:41.263Z,71.19
2022-08-25T05:59:09.960Z,71.27
2022-08-25T06:01:56.810Z,71.20
2022-08-25T06:04:24.773Z,71.35
2022-08-25T06:06:54.998Z,71.22
2022-08-25T06:09:23.204Z,71.41
2022-08-25T06:11:54.660Z,71.23
2022-08-25T06:14:24.427Z,71.27
2022-08-25T06:16:53.168Z,71.40
2022-08-25T06:19:23.742Z,71.34
2022-08-25T06:21:57.618Z,71.35
2022-08-25T06:24:26.040Z,71.36
2022-08-25T06:26:54.875Z,71.44
2022-08-25T06:29:25.475Z,71.39
2022-08-25T06:31:53.651Z,71.39
2022-08-25T06:34:23.877Z,71.29
2022-08-25T06:36:53.305Z,71.41
2022-08-25T06:39:22.688Z,71.42
2022-08-25T06:41:55.962Z,71.52
2022-08-25T06:44:24.406Z,71.40
2022-08-25T06:46:52.374Z,71.53
2022-08-25T06:49:20.665Z,71.45
2022-08-25T06:51:49.108Z,71.31
2022-08-25T06:54:18.417Z,71.49
2022-08-25T06:56:47.182Z,71.58
2022-08-25T06:59:19.008Z,71.57
2022-08-25T07:01:47.168Z,71.48
2022-08-25T07:04:19.376Z,71.54
2022-08-25T07:06:48.085Z,71.32
2022-08-25T07:09:15.923Z,71.65
2022-08-25T07:11:45.762Z,71.43
2022-08-25T07:14:16.546Z,71.52
2022-08-25T07:16:49.278Z,71.48
2022-08-25T07:19:21.020Z,71.49
2022-08-25T07:21:52.912Z,71.74
2022-08-25T07:24:22.699Z,71.75
2022-08-25T07:26:51.555Z,71.70
2022-08-25T07:29:31.976Z,71.63
2022-08-25T07:32:02.949Z,71.51
2022-08-25T07:34:52.156Z,70.45
2022-08-25T07:37:47.873Z,69.69
2022-08-25T07:40:22.664Z,70.20
2022-08-25T07:42:53.898Z,70.61
2022-08-25T07:45:29.900Z,70.44
2022-08-25T07:48:00.153Z,69.42
2022-08-25T07:50:29.964Z,69.53
2022-08-25T07:52:59.372Z,70.15
2022-08-25T07:55:30.592Z,69.63
2022-08-25T07:57:59.918Z,70.00
2022-08-25T08:00:30.319Z,69.79
2022-08-25T08:02:59.718Z,69.09
2022-08-25T08:05:28.906Z,68.26
2022-08-25T08:07:57.492Z,67.70
2022-08-25T08:10:47.887Z,67.52
2022-08-25T08:13:18.000Z,67.30
2022-08-25T08:15:47.443Z,67.14
2022-08-25T08:18:16.367Z,66.75
2022-08-25T08:20:46.683Z,66.21
2022-08-25T08:23:15.209Z,65.93
2022-08-25T08:25:43.302Z,65.71
2022-08-25T08:28:12.121Z,65.44
2022-08-25T08:30:53.006Z,64.86
2022-08-25T08:33:23.017Z,64.31
2022-08-25T08:36:05.149Z,64.11
2022-08-25T08:38:37.760Z,63.14
2022-08-25T08:42:09.661Z,62.54
2022-08-25T08:44:45.293Z,61.17
2022-08-25T08:47:52.941Z,60.80
2022-08-25T08:50:51.861Z,59.78
2022-08-25T08:53:41.063Z,58.96
2022-08-25T08:56:16.127Z,58.11
2022-08-25T08:58:49.901Z,57.22
2022-08-25T09:01:26.763Z,56.60
2022-08-25T09:04:08.614Z,56.08
2022-08-25T09:06:42.722Z,55.00
2022-08-25T09:09:23.490Z,54.27
2022-08-25T09:12:28.255Z,53.19
2022-08-25T09:15:18.339Z,52.45
2022-08-25T09:18:00.105Z,51.87
2022-08-25T09:20:41.840Z,51.09
2022-08-25T09:23:31.759Z,49.55
2022-08-25T09:26:16.065Z,49.05
2022-08-25T09:28:55.670Z,48.40
2022-08-25T09:31:29.742Z,48.20
2022-08-25T09:34:02.090Z,47.50
2022-08-25T09:36:37.489Z,46.86
2022-08-25T09:39:08.125Z,45.98
2022-08-25T09:41:40.735Z,45.60
2022-08-25T09:44:20.449Z,45.06
2022-08-25T09:46:57.412Z,44.75
2022-08-25T09:49:44.850Z,44.19
2022-08-25T09:52:23.985Z,43.44
2022-08-25T09:54:56.254Z,43.01
2022-08-25T09:57:30.953Z,42.55
2022-08-25T10:00:30.673Z,41.62
2022-08-25T10:03:22.452Z,41.52
2022-08-25T10:06:03.393Z,40.88
2022-08-25T10:08:39.760Z,40.47
2022-08-25T10:11:15.708Z,40.27
2022-08-25T10:13:51.530Z,39.95
2022-08-25T10:16:35.620Z,39.52
2022-08-25T10:19:08.189Z,39.42
2022-08-25T10:21:37.310Z,38.84
2022-08-25T10:24:06.714Z,38.73
2022-08-25T10:26:37.623Z,38.48
2022-08-25T10:29:32.604Z,38.49
2022-08-25T10:32:24.575Z,38.13
2022-08-25T10:34:56.794Z,38.13
2022-08-25T10:37:55.410Z,38.02
2022-08-25T10:40:37.500Z,37.91
2022-08-25T10:43:08.575Z,37.84
2022-08-25T10:46:18.722Z,37.84
2022-08-25T10:49:28.356Z,37.69
2022-08-25T10:52:07.689Z,37.57
2022-08-25T10:54:54.811Z,37.51
2022-08-25T10:57:46.737Z,37.62
2022-08-25T11:00:24.882Z,37.49
2022-08-25T11:03:26.682Z,37.10
2022-08-25T11:06:20.551Z,37.18
2022-08-25T11:09:00.738Z,37.09
2022-08-25T11:12:07.411Z,37.04
2022-08-25T11:14:49.818Z,36.88
2022-08-25T11:17:25.672Z,36.84
2022-08-25T11:20:04.069Z,36.72
2022-08-25T11:22:45.967Z,36.63
2022-08-25T11:25:32.401Z,36.40
2022-08-25T11:28:38.558Z,36.33
2022-08-25T11:31:08.735Z,36.07
2022-08-25T11:33:40.517Z,35.97
2022-08-25T11:36:29.486Z,35.81
2022-08-25T11:39:16.326Z,35.95
2022-08-25T11:42:09.142Z,35.75
2022-08-25T11:45:02.615Z,35.43
2022-08-25T11:47:33.554Z,35.39
2022-08-25T11:50:25.865Z,35.27
2022-08-25T11:53:15.363Z,35.17
2022-08-25T11:55:53.984Z,34.93
2022-08-25T11:58:28.068Z,34.96
2022-08-25T12:01:01.308Z,34.81
2022-08-25T12:03:32.093Z,34.70
2022-08-25T12:06:34.393Z,34.90
2022-08-25T12:09:04.994Z,34.41
2022-08-25T12:11:39.649Z,34.61
2022-08-25T12:14:22.466Z,34.24
2022-08-25T12:16:51.739Z,34.23
2022-08-25T12:19:35.608Z,34.30
2022-08-25T12:22:04.266Z,34.16
2022-08-25T12:24:48.098Z,34.15
2022-08-25T12:27:43.031Z,33.84
2022-08-25T12:30:18.620Z,33.96
2022-08-25T12:33:16.752Z,33.72
2022-08-25T12:36:03.361Z,33.65
2022-08-25T12:38:49.705Z,33.59
2022-08-25T12:41:24.490Z,33.45
2022-08-25T12:44:09.190Z,33.53
2022-08-25T12:46:39.666Z,33.42
2022-08-25T12:49:34.578Z,33.26
2022-08-25T12:52:07.152Z,33.15
2022-08-25T12:54:42.527Z,32.91
2022-08-25T12:57:40.332Z,32.82
2022-08-25T13:03:09.981Z,32.80
2022-08-25T13:05:41.164Z,32.68
2022-08-25T13:08:48.107Z,32.68
2022-08-25T13:11:39.041Z,32.76
2022-08-25T13:14:37.887Z,32.88
2022-08-25T13:17:07.228Z,32.77
2022-08-25T13:19:38.665Z,32.99
2022-08-25T13:22:16.374Z,32.99
2022-08-25T13:24:50.607Z,32.92
2022-08-25T13:27:27.657Z,32.99
2022-08-25T13:30:04.001Z,32.89
2022-08-25T13:32:38.173Z,33.06
2022-08-25T13:35:26.530Z,32.87
2022-08-25T13:38:16.761Z,32.98
2022-08-25T13:40:45.149Z,33.06
2022-08-25T13:43:15.021Z,33.04
2022-08-25T13:45:46.635Z,33.15
2022-08-25T13:48:31.361Z,33.21
2022-08-25T13:51:21.430Z,33.19
2022-08-25T13:53:58.372Z,33.23
2022-08-25T13:56:40.515Z,33.40
2022-08-25T13:59:28.544Z,33.33
2022-08-25T14:01:56.783Z,33.24
2022-08-25T14:04:33.079Z,33.26
2022-08-25T14:07:37.243Z,33.27
2022-08-25T14:10:11.446Z,33.42
2022-08-25T14:12:49.721Z,33.47
2022-08-25T14:15:17.920Z,33.40
2022-08-25T14:18:00.998Z,33.48
2022-08-25T14:20:31.839Z,33.47
2022-08-25T14:23:07.886Z,33.65
2022-08-25T14:25:42.233Z,33.55
2022-08-25T14:28:18.570Z,33.62
2022-08-25T14:31:00.163Z,33.67
2022-08-25T14:33:35.374Z,33.55
2022-08-25T14:36:05.492Z,33.63
2022-08-25T14:38:34.590Z,33.68
2022-08-25T14:41:02.576Z,33.66
2022-08-25T14:43:31.884Z,33.63
2022-08-25T14:46:10.655Z,33.64
2022-08-25T14:48:45.989Z,33.57
2022-08-25T14:51:17.501Z,33.57
2022-08-25T14:53:45.946Z,33.58
2022-08-25T14:56:14.309Z,33.60
2022-08-25T14:58:50.895Z,33.71
2022-08-25T15:01:28.777Z,33.78
2022-08-25T15:04:22.567Z,33.71
2022-08-25T15:06:56.079Z,33.70
2022-08-25T15:09:25.257Z,33.70
2022-08-25T15:12:01.640Z,33.83
2022-08-25T15:14:33.354Z,33.73
2022-08-25T15:17:03.643Z,33.82
2022-08-25T15:19:31.558Z,33.90
2022-08-25T15:21:59.798Z,34.00
2022-08-25T15:24:28.833Z,34.12
2022-08-25T15:27:00.260Z,34.00
2022-08-25T15:29:31.544Z,34.04
2022-08-25T15:32:01.215Z,34.03
2022-08-25T15:34:43.460Z,34.07
2022-08-25T15:37:18.384Z,34.00
2022-08-25T15:39:48.642Z,34.03
2022-08-25T15:42:17.118Z,34.03
2022-08-25T15:44:53.442Z,34.01
2022-08-25T15:47:24.193Z,33.86
2022-08-25T15:50:04.566Z,33.96
2022-08-25T15:52:44.514Z,34.05
2022-08-25T15:55:16.139Z,33.99
2022-08-25T15:57:44.731Z,33.90
2022-08-25T16:00:16.798Z,34.00
2022-08-25T16:02:46.263Z,34.11
2022-08-25T16:05:16.198Z,34.15
2022-08-25T16:07:51.539Z,34.18
2022-08-25T16:10:20.959Z,34.42
2022-08-25T16:12:50.083Z,34.40
2022-08-25T16:15:17.941Z,34.47
2022-08-25T16:17:52.135Z,34.50
2022-08-25T16:20:21.110Z,34.60
2022-08-25T16:22:52.479Z,34.68
2022-08-25T16:25:21.290Z,34.51
2022-08-25T16:27:49.374Z,34.55
2022-08-25T16:30:18.292Z,34.61
2022-08-25T16:32:47.724Z,34.70
2022-08-25T16:35:15.727Z,34.79
2022-08-25T16:37:44.312Z,34.75
2022-08-25T16:40:14.670Z,34.94
2022-08-25T16:42:43.495Z,34.66
2022-08-25T16:45:12.190Z,34.83
2022-08-25T16:47:42.795Z,35.05
2022-08-25T16:50:12.213Z,35.26
2022-08-25T16:53:00.116Z,35.07
2022-08-25T16:55:39.000Z,35.17
2022-08-25T16:58:12.651Z,35.50
2022-08-25T17:00:43.815Z,35.48
2022-08-25T17:03:13.311Z,35.35
2022-08-25T17:05:42.940Z,35.71
2022-08-25T17:08:30.440Z,35.90
2022-08-25T17:11:27.614Z,35.94
2022-08-25T17:13:58.960Z,36.14
2022-08-25T17:16:31.388Z,36.13
2022-08-25T17:19:07.725Z,36.16
2022-08-25T17:21:45.083Z,36.31
2022-08-25T17:24:16.915Z,36.61
2022-08-25T17:26:47.312Z,36.77
2022-08-25T17:29:18.678Z,36.77
2022-08-25T17:31:48.484Z,36.99
2022-08-25T17:34:22.953Z,36.73
2022-08-25T17:36:54.504Z,37.09
2022-08-25T17:39:23.299Z,37.08
2022-08-25T17:41:52.487Z,37.23
2022-08-25T17:44:21.010Z,37.19
2022-08-25T17:46:49.495Z,37.33
2022-08-25T17:49:18.111Z,37.40
2022-08-25T17:51:46.108Z,37.48
2022-08-25T17:54:14.792Z,37.65
2022-08-25T17:56:44.989Z,37.73
2022-08-25T17:59:14.111Z,37.77
2022-08-25T18:01:42.746Z,37.86
2022-08-25T18:04:17.281Z,37.89
2022-08-25T18:06:48.732Z,37.83
2022-08-25T18:09:32.298Z,37.99
2022-08-25T18:12:00.521Z,38.04
2022-08-25T18:14:28.684Z,38.18
2022-08-25T18:16:57.363Z,38.12
2022-08-25T18:19:25.402Z,38.20
2022-08-25T18:21:53.267Z,37.96
2022-08-25T18:24:23.585Z,38.12
2022-08-25T18:26:51.734Z,38.40
2022-08-25T18:29:20.912Z,38.24
2022-08-25T18:31:49.061Z,38.34
2022-08-25T18:34:17.308Z,38.17
2022-08-25T18:36:46.815Z,38.18
2022-08-25T18:39:34.915Z,38.31
2022-08-25T18:42:05.694Z,38.32
2022-08-25T18:44:34.876Z,38.37
2022-08-25T18:47:07.698Z,38.53
2022-08-25T18:49:37.738Z,38.58
2022-08-25T18:52:07.527Z,38.63
2022-08-25T18:54:36.314Z,38.61
2022-08-25T18:57:05.072Z,38.55
2022-08-25T18:59:37.440Z,38.62
2022-08-25T19:02:07.723Z,38.66
2022-08-25T19:04:35.954Z,38.79
2022-08-25T19:07:05.935Z,38.77
2022-08-25T19:09:36.647Z,38.84
2022-08-25T19:12:06.095Z,38.94
2022-08-25T19:14:39.725Z,39.01
2022-08-25T19:17:08.893Z,39.12
2022-08-25T19:19:36.857Z,39.26
2022-08-25T19:22:04.887Z,39.25
2022-08-25T19:24:33.204Z,39.40
2022-08-25T19:27:03.116Z,39.33
2022-08-25T19:29:31.900Z,39.52
2022-08-25T19:32:01.478Z,39.64
2022-08-25T19:34:35.318Z,39.79
2022-08-25T19:37:04.638Z,39.75
2022-08-25T19:39:35.732Z,39.80
2022-08-25T19:42:08.303Z,39.96
2022-08-25T19:44:57.675Z,40.07
2022-08-25T19:47:26.082Z,40.12
2022-08-25T19:52:27.249Z,40.20
2022-08-25T19:54:57.057Z,40.43
2022-08-25T19:57:28.536Z,40.49
2022-08-25T20:00:29.550Z,40.72
2022-08-25T20:03:00.812Z,40.71
2022-08-25T20:05:30.174Z,40.78
2022-08-25T20:07:59.698Z,40.87
2022-08-25T20:10:33.953Z,40.93
2022-08-25T20:13:12.038Z,41.11
2022-08-25T20:15:41.260Z,41.24
2022-08-25T20:18:09.442Z,41.34
2022-08-25T20:21:06.479Z,41.49
2022-08-25T20:24:09.570Z,41.65
2022-08-25T20:26:38.737Z,41.84
2022-08-25T20:29:13.144Z,41.83
2022-08-25T20:31:41.606Z,42.22
2022-08-25T20:34:13.540Z,42.06
2022-08-25T20:36:50.024Z,42.22
2022-08-25T20:39:21.418Z,42.20
2022-08-25T20:41:50.222Z,42.52
2022-08-25T20:44:20.096Z,42.60
2022-08-25T20:46:52.531Z,42.66
2022-08-25T20:49:27.380Z,42.74
2022-08-25T20:51:57.230Z,42.91
2022-08-25T20:54:27.914Z,42.98
2022-08-25T20:56:58.559Z,43.00
2022-08-25T20:59:28.509Z,43.11
2022-08-25T21:01:58.463Z,43.37
2022-08-25T21:04:29.957Z,43.26
2022-08-25T21:07:01.202Z,43.65
2022-08-25T21:09:30.168Z,43.63
2022-08-25T21:12:01.804Z,43.76
2022-08-25T21:14:30.511Z,44.03
2022-08-25T21:17:01.463Z,43.93
2022-08-25T21:19:32.229Z,43.93
2022-08-25T21:22:02.006Z,44.25
2022-08-25T21:24:30.344Z,44.11
2022-08-25T21:27:00.228Z,44.27
2022-08-25T21:29:29.998Z,44.40
2022-08-25T21:31:59.798Z,44.50
2022-08-25T21:34:31.295Z,44.69
2022-08-25T21:37:00.390Z,44.87
2022-08-25T21:39:32.497Z,44.83
2022-08-25T21:42:02.091Z,44.98
2022-08-25T21:44:30.803Z,45.11
2022-08-25T21:47:00.157Z,45.28
2022-08-25T21:49:28.183Z,45.23
2022-08-25T21:52:00.859Z,45.39
2022-08-25T21:54:30.461Z,45.59
2022-08-25T21:57:03.321Z,45.62
2022-08-25T21:59:37.789Z,45.76
2022-08-25T22:02:11.403Z,45.82
2022-08-25T22:04:42.189Z,45.89
2022-08-25T22:07:12.398Z,45.98
2022-08-25T22:09:42.070Z,46.24
2022-08-25T22:12:12.815Z,46.22
2022-08-25T22:14:45.215Z,46.31
2022-08-25T22:17:17.038Z,46.44
2022-08-25T22:19:53.855Z,46.55
2022-08-25T22:22:25.511Z,46.56
2022-08-25T22:24:53.590Z,46.68
2022-08-25T22:27:23.363Z,46.76
2022-08-25T22:32:55.857Z,47.02
2022-08-25T22:35:25.356Z,47.09
2022-08-25T22:37:55.271Z,47.24
2022-08-25T22:40:23.115Z,47.33
2022-08-25T22:42:55.027Z,47.26
2022-08-25T22:45:23.178Z,47.44
2022-08-25T22:47:53.435Z,47.52
2022-08-25T22:50:23.223Z,47.62
2022-08-25T22:52:52.741Z,47.76
2022-08-25T22:55:22.624Z,47.74
2022-08-25T22:57:50.420Z,47.89
2022-08-25T23:00:25.157Z,48.05
2022-08-25T23:03:12.549Z,48.09
2022-08-25T23:05:42.498Z,48.21
2022-08-25T23:08:11.990Z,48.19
2022-08-25T23:13:34.750Z,48.60
2022-08-25T23:16:10.193Z,48.62
2022-08-25T23:18:43.769Z,48.75
2022-08-25T23:21:37.858Z,48.85
2022-08-25T23:24:13.428Z,49.02
2022-08-25T23:26:43.370Z,49.10
2022-08-25T23:29:20.425Z,49.10
2022-08-25T23:31:48.520Z,49.15
2022-08-25T23:34:18.140Z,49.18
2022-08-25T23:36:45.960Z,49.41
2022-08-25T23:39:17.404Z,49.42
2022-08-25T23:41:47.226Z,49.39
2022-08-25T23:44:21.415Z,49.71
2022-08-25T23:46:51.428Z,49.39
2022-08-25T23:49:23.472Z,49.74
2022-08-25T23:51:57.264Z,49.76
2022-08-25T23:54:31.429Z,49.86
2022-08-25T23:57:01.597Z,49.98
2022-08-25T23:59:30.929Z,50.11
